createdAt,value
2023-01-29T00:03:47.023Z,0.82
2023-01-29T00:08:50.628Z,0.85
2023-01-29T00:13:54.592Z,0.72
2023-01-29T00:18:58.715Z,0.69
2023-01-29T00:24:02.645Z,0.81
2023-01-29T00:29:07.166Z,0.69
2023-01-29T00:34:10.800Z,0.73
2023-01-29T00:39:14.901Z,0.59
2023-01-29T00:44:36.921Z,0.57
2023-01-29T00:49:40.421Z,0.47
2023-01-29T00:54:43.780Z,0.29
2023-01-29T00:59:46.911Z,0.21
2023-01-29T01:04:50.202Z,0.06
2023-01-29T01:10:12.289Z,-0.10
2023-01-29T01:15:15.589Z,-0.34
2023-01-29T01:20:19.008Z,-0.41
2023-01-29T01:25:24.694Z,-0.68
2023-01-29T01:30:28.598Z,-0.66
2023-01-29T01:35:32.270Z,-0.74
2023-01-29T01:40:35.565Z,-1.32
2023-01-29T01:45:39.270Z,-0.91
2023-01-29T01:50:47.513Z,-0.75
2023-01-29T01:55:56.693Z,-0.63
2023-01-29T02:01:01.397Z,-0.30
2023-01-29T02:06:24.026Z,-0.10
2023-01-29T02:11:27.464Z,0.07
2023-01-29T02:16:30.708Z,0.10
2023-01-29T02:22:02.349Z,0.01
2023-01-29T02:27:15.995Z,0.11
2023-01-29T02:32:26.632Z,0.06
2023-01-29T02:38:12.613Z,-0.14
2023-01-29T02:43:36.835Z,-0.23
2023-01-29T02:48:50.399Z,-0.34
2023-01-29T02:54:03.257Z,-0.45
2023-01-29T02:59:16.403Z,-0.50
2023-01-29T03:04:25.230Z,-0.60
2023-01-29T03:09:42.346Z,-0.72
2023-01-29T03:15:09.277Z,-0.83
2023-01-29T03:20:18.205Z,-0.92
2023-01-29T03:25:43.716Z,-1.15
2023-01-29T03:31:13.626Z,-1.02
2023-01-29T03:36:38.377Z,-1.08
2023-01-29T03:41:54.665Z,-1.14
2023-01-29T03:47:17.970Z,-1.14
2023-01-29T03:52:35.148Z,-1.24
2023-01-29T03:57:45.883Z,-1.00
2023-01-29T04:03:14.596Z,-0.82
2023-01-29T04:08:28.359Z,-0.53
2023-01-29T04:13:37.372Z,-0.38
2023-01-29T04:18:40.618Z,-0.37
2023-01-29T04:23:47.006Z,-0.25
2023-01-29T04:29:06.684Z,-0.09
2023-01-29T04:34:28.579Z,0.15
2023-01-29T04:39:44.276Z,0.22
2023-01-29T04:44:59.763Z,0.40
2023-01-29T04:50:11.698Z,0.37
2023-01-29T04:55:36.415Z,0.39
2023-01-29T05:00:45.596Z,0.20
2023-01-29T05:05:51.709Z,0.19
2023-01-29T05:10:57.104Z,0.13
2023-01-29T05:16:47.527Z,0.11
2023-01-29T05:21:51.108Z,0.12
2023-01-29T05:27:13.767Z,0.08
2023-01-29T05:32:17.235Z,0.26
2023-01-29T05:37:20.318Z,0.42
2023-01-29T05:42:24.467Z,0.31
2023-01-29T05:47:27.539Z,0.33
2023-01-29T05:52:30.735Z,0.27
2023-01-29T05:57:33.849Z,0.29
2023-01-29T06:02:37.546Z,0.33
2023-01-29T06:07:45.488Z,0.23
2023-01-29T06:12:48.958Z,0.07
2023-01-29T06:17:54.938Z,0.03
2023-01-29T06:22:58.984Z,0.13
2023-01-29T06:28:02.509Z,0.24
2023-01-29T06:33:05.724Z,0.35
2023-01-29T06:38:09.346Z,0.34
2023-01-29T06:43:12.923Z,0.47
2023-01-29T06:48:16.542Z,0.50
2023-01-29T06:53:20.050Z,0.55
2023-01-29T06:58:23.398Z,0.68
2023-01-29T07:03:26.976Z,0.85
2023-01-29T07:08:30.066Z,1.04
2023-01-29T07:13:35.846Z,1.09
2023-01-29T07:18:39.338Z,1.08
2023-01-29T07:23:42.787Z,1.21
2023-01-29T07:28:46.441Z,1.49
2023-01-29T07:33:49.610Z,1.90
2023-01-29T07:38:53.520Z,2.45
2023-01-29T07:43:57.057Z,2.72
2023-01-29T07:49:05.194Z,2.58
2023-01-29T07:54:11.096Z,2.47
2023-01-29T07:59:14.579Z,2.50
2023-01-29T08:04:17.657Z,2.66
2023-01-29T08:09:23.509Z,3.52
2023-01-29T08:14:27.626Z,4.20
2023-01-29T08:19:31.230Z,5.77
2023-01-29T08:24:47.666Z,9.05
2023-01-29T08:29:57.514Z,12.18
2023-01-29T08:35:00.560Z,12.45
2023-01-29T08:40:05.014Z,12.78
2023-01-29T08:45:08.887Z,10.39
2023-01-29T08:50:12.682Z,8.45
2023-01-29T08:55:16.051Z,7.90
2023-01-29T09:00:20.421Z,7.82
2023-01-29T09:05:23.815Z,7.90
2023-01-29T09:10:27.532Z,7.96
2023-01-29T09:15:31.403Z,8.11
2023-01-29T09:20:35.521Z,8.55
2023-01-29T09:25:38.962Z,8.91
2023-01-29T09:30:42.685Z,9.04
2023-01-29T09:35:47.409Z,9.82
2023-01-29T09:41:16.524Z,10.70
2023-01-29T09:46:26.006Z,13.03
2023-01-29T09:51:50.939Z,14.62
2023-01-29T09:56:56.611Z,15.22
2023-01-29T10:02:11.916Z,15.70
2023-01-29T10:07:36.632Z,17.61
2023-01-29T10:13:12.874Z,14.40
2023-01-29T10:18:38.975Z,17.27
2023-01-29T10:23:48.423Z,18.03
2023-01-29T10:28:55.997Z,17.70
2023-01-29T10:34:11.653Z,16.56
2023-01-29T10:39:21.671Z,15.36
2023-01-29T10:44:43.336Z,13.72
2023-01-29T10:50:20.054Z,12.63
2023-01-29T10:55:41.341Z,12.98
2023-01-29T11:00:44.831Z,12.95
2023-01-29T11:05:54.796Z,12.57
2023-01-29T11:11:07.950Z,12.42
2023-01-29T11:16:13.125Z,12.10
2023-01-29T11:21:17.682Z,12.17
2023-01-29T11:26:24.472Z,12.32
2023-01-29T11:31:36.063Z,12.31
2023-01-29T11:36:40.480Z,11.89
2023-01-29T11:41:47.991Z,11.60
2023-01-29T11:46:51.501Z,11.38
2023-01-29T11:51:57.401Z,11.37
2023-01-29T11:57:01.743Z,11.46
2023-01-29T12:02:14.103Z,10.85
2023-01-29T12:07:19.297Z,10.59
2023-01-29T12:12:32.406Z,10.12
2023-01-29T12:17:39.938Z,10.58
2023-01-29T12:22:58.350Z,10.63
2023-01-29T12:28:16.196Z,10.20
2023-01-29T12:33:42.108Z,10.79
2023-01-29T12:38:46.282Z,10.66
2023-01-29T12:43:54.635Z,10.23
2023-01-29T12:49:02.325Z,9.66
2023-01-29T12:54:15.338Z,9.44
2023-01-29T12:59:30.615Z,9.24
2023-01-29T13:04:40.728Z,8.37
2023-01-29T13:09:51.072Z,8.07
2023-01-29T13:14:59.373Z,8.09
2023-01-29T13:20:33.549Z,7.85
2023-01-29T13:25:36.626Z,7.74
2023-01-29T13:30:40.656Z,7.86
2023-01-29T13:35:46.346Z,8.14
2023-01-29T13:40:51.286Z,8.61
2023-01-29T13:45:55.367Z,8.37
2023-01-29T13:51:03.739Z,8.27
2023-01-29T13:56:32.407Z,7.82
2023-01-29T14:01:49.668Z,9.22
2023-01-29T14:06:59.593Z,8.94
2023-01-29T14:12:36.211Z,9.38
2023-01-29T14:17:40.768Z,10.21
2023-01-29T14:22:44.465Z,12.00
2023-01-29T14:27:49.193Z,11.71
2023-01-29T14:32:53.056Z,9.70
2023-01-29T14:38:03.328Z,9.27
2023-01-29T14:43:09.583Z,8.55
2023-01-29T14:48:13.422Z,8.44
2023-01-29T14:53:43.929Z,8.44
2023-01-29T14:58:58.683Z,7.91
2023-01-29T15:04:29.389Z,7.68
2023-01-29T15:09:47.754Z,7.52
2023-01-29T15:14:57.699Z,7.15
2023-01-29T15:20:01.395Z,6.86
2023-01-29T15:25:07.535Z,6.80
2023-01-29T15:30:20.874Z,6.71
2023-01-29T15:35:38.793Z,6.63
2023-01-29T15:40:42.055Z,6.56
2023-01-29T15:45:50.718Z,6.32
2023-01-29T15:50:56.503Z,6.14
2023-01-29T15:56:01.699Z,5.97
2023-01-29T16:01:08.962Z,5.96
2023-01-29T16:06:14.763Z,5.90
2023-01-29T16:11:19.891Z,5.87
2023-01-29T16:16:26.207Z,5.85
2023-01-29T16:21:37.846Z,5.73
2023-01-29T16:26:47.436Z,5.67
2023-01-29T16:32:01.059Z,5.58
2023-01-29T16:37:09.281Z,5.48
2023-01-29T16:42:17.439Z,5.38
2023-01-29T16:47:41.438Z,5.27
2023-01-29T16:53:18.710Z,5.14
2023-01-29T16:58:26.546Z,5.16
2023-01-29T17:03:33.253Z,4.97
2023-01-29T17:08:37.601Z,4.56
2023-01-29T17:13:44.518Z,5.07
2023-01-29T17:18:48.262Z,5.06
2023-01-29T17:23:54.888Z,4.98
2023-01-29T17:28:58.338Z,5.00
2023-01-29T17:34:01.652Z,5.05
2023-01-29T17:39:22.831Z,5.05
2023-01-29T17:44:26.401Z,5.03
2023-01-29T17:49:34.628Z,5.07
2023-01-29T17:54:38.605Z,4.88
2023-01-29T17:59:44.225Z,4.98
2023-01-29T18:04:51.311Z,4.95
2023-01-29T18:09:55.018Z,4.89
2023-01-29T18:14:58.905Z,4.79
2023-01-29T18:20:03.360Z,4.62
2023-01-29T18:25:07.182Z,4.33
2023-01-29T18:30:11.389Z,4.01
2023-01-29T18:35:19.335Z,3.65
2023-01-29T18:40:24.349Z,3.22
2023-01-29T18:45:28.845Z,2.93
2023-01-29T18:50:32.701Z,2.63
2023-01-29T18:55:35.741Z,2.40
2023-01-29T19:00:41.207Z,2.31
2023-01-29T19:05:45.326Z,2.34
2023-01-29T19:10:48.839Z,2.33
2023-01-29T19:15:52.886Z,2.22
2023-01-29T19:26:20.962Z,2.02
2023-01-29T19:31:26.368Z,1.77
2023-01-29T19:36:30.072Z,1.58
2023-01-29T19:41:36.007Z,1.61
2023-01-29T19:46:40.078Z,1.55
2023-01-29T19:51:44.832Z,1.24
2023-01-29T19:56:49.453Z,1.21
2023-01-29T20:01:52.947Z,1.02
2023-01-29T20:06:56.908Z,0.94
2023-01-29T20:12:00.501Z,0.76
2023-01-29T20:17:06.394Z,0.75
2023-01-29T20:22:11.436Z,0.65
2023-01-29T20:27:14.633Z,0.58
2023-01-29T20:32:18.031Z,0.53
2023-01-29T20:37:21.659Z,0.51
2023-01-29T20:42:25.309Z,0.51
2023-01-29T20:47:28.436Z,0.66
2023-01-29T20:52:31.964Z,0.70
2023-01-29T20:57:41.763Z,0.67
2023-01-29T21:02:48.414Z,0.68
2023-01-29T21:07:51.579Z,0.70
2023-01-29T21:12:55.177Z,0.77
2023-01-29T21:18:02.546Z,0.86
2023-01-29T21:23:09.528Z,0.92
2023-01-29T21:28:16.272Z,0.89
2023-01-29T21:33:19.435Z,0.97
2023-01-29T21:38:22.502Z,0.80
2023-01-29T21:43:25.576Z,0.88
2023-01-29T21:48:29.248Z,0.92
2023-01-29T21:53:32.654Z,0.91
2023-01-29T21:58:36.280Z,0.70
2023-01-29T22:03:40.142Z,0.44
2023-01-29T22:08:51.120Z,0.22
2023-01-29T22:13:56.959Z,-0.19
2023-01-29T22:19:00.015Z,-0.09
2023-01-29T22:24:03.958Z,-0.27
2023-01-29T22:29:06.985Z,-0.34
2023-01-29T22:34:11.329Z,-0.50
2023-01-29T22:39:14.884Z,-0.64
2023-01-29T22:44:18.565Z,-0.60
2023-01-29T22:49:23.398Z,-0.74
2023-01-29T22:54:26.429Z,-0.85
2023-01-29T22:59:30.209Z,-0.91
2023-01-29T23:04:34.258Z,-1.00
2023-01-29T23:09:37.486Z,-1.01
2023-01-29T23:14:40.997Z,-0.98
2023-01-29T23:19:44.487Z,-1.06
2023-01-29T23:24:47.600Z,-1.03
2023-01-29T23:29:50.959Z,-1.05
2023-01-29T23:34:53.951Z,-1.15
2023-01-29T23:39:58.189Z,-1.13
2023-01-29T23:45:01.711Z,-1.07
2023-01-29T23:50:05.626Z,-1.00
2023-01-29T23:55:10.222Z,-0.97
